createdAt,value
2023-01-26T13:00:09.931Z,3.09
2023-01-26T13:02:38.053Z,3.19
2023-01-26T13:05:08.028Z,3.18
2023-01-26T13:07:37.002Z,3.03
2023-01-26T13:10:11.359Z,3.29
2023-01-26T13:12:46.890Z,3.36
2023-01-26T13:15:17.764Z,3.01
2023-01-26T13:18:01.011Z,3.55
2023-01-26T13:20:44.625Z,3.25
2023-01-26T13:23:41.168Z,3.24
2023-01-26T13:26:15.970Z,3.47
2023-01-26T13:28:43.590Z,3.40
2023-01-26T13:31:12.990Z,3.91
2023-01-26T13:33:41.479Z,3.81
2023-01-26T13:36:17.567Z,4.00
2023-01-26T13:38:48.992Z,4.21
2023-01-26T13:41:20.889Z,3.96
2023-01-26T13:43:52.329Z,3.83
2023-01-26T13:46:26.498Z,3.79
2023-01-26T13:48:55.559Z,3.98
2023-01-26T13:51:24.722Z,3.91
2023-01-26T13:54:03.867Z,4.59
2023-01-26T13:56:33.672Z,4.57
2023-01-26T13:59:06.926Z,4.84
2023-01-26T14:01:42.749Z,4.55
2023-01-26T14:04:16.358Z,4.94
2023-01-26T14:06:47.885Z,4.89
2023-01-26T14:09:16.404Z,5.06
2023-01-26T14:11:44.445Z,5.13
2023-01-26T14:14:22.455Z,5.16
2023-01-26T14:16:51.308Z,4.95
2023-01-26T14:19:21.338Z,4.70
2023-01-26T14:21:51.918Z,4.81
2023-01-26T14:24:21.177Z,4.79
2023-01-26T14:26:49.204Z,4.73
2023-01-26T14:29:21.836Z,4.69
2023-01-26T14:31:51.404Z,4.97
2023-01-26T14:34:23.720Z,4.92
2023-01-26T14:37:06.993Z,4.87
2023-01-26T14:39:34.968Z,4.81
2023-01-26T14:42:02.975Z,5.13
2023-01-26T14:44:30.861Z,5.24
2023-01-26T14:47:03.081Z,5.16
2023-01-26T14:49:43.129Z,5.48
2023-01-26T14:52:19.226Z,5.45
2023-01-26T14:54:47.167Z,5.45
2023-01-26T14:57:20.328Z,5.31
2023-01-26T14:59:50.633Z,5.60
2023-01-26T15:02:22.418Z,5.49
2023-01-26T15:04:54.429Z,5.61
2023-01-26T15:07:24.206Z,5.86
2023-01-26T15:09:56.090Z,5.75
2023-01-26T15:12:26.565Z,5.66
2023-01-26T15:14:58.550Z,5.41
2023-01-26T15:17:45.649Z,5.78
2023-01-26T15:20:40.179Z,5.83
2023-01-26T15:23:22.027Z,5.72
2023-01-26T15:25:50.106Z,5.81
2023-01-26T15:28:19.556Z,5.83
2023-01-26T15:30:49.817Z,5.78
2023-01-26T15:33:50.494Z,5.74
2023-01-26T15:36:26.830Z,5.75
2023-01-26T15:38:59.685Z,5.72
2023-01-26T15:41:27.880Z,5.80
2023-01-26T15:43:55.877Z,5.61
2023-01-26T15:46:23.478Z,5.73
2023-01-26T15:48:52.718Z,5.82
2023-01-26T15:51:20.318Z,5.79
2023-01-26T15:53:47.835Z,5.83
2023-01-26T15:56:17.084Z,5.77
2023-01-26T15:58:44.682Z,5.79
2023-01-26T16:01:17.404Z,5.95
2023-01-26T16:03:45.330Z,5.74
2023-01-26T16:06:21.193Z,5.84
2023-01-26T16:08:48.924Z,5.93
2023-01-26T16:11:16.640Z,5.83
2023-01-26T16:13:53.984Z,5.94
2023-01-26T16:16:30.296Z,5.88
2023-01-26T16:18:58.542Z,5.91
2023-01-26T16:21:31.644Z,5.84
2023-01-26T16:23:59.384Z,5.83
2023-01-26T16:26:27.836Z,5.99
2023-01-26T16:28:55.702Z,6.05
2023-01-26T16:31:28.157Z,6.05
2023-01-26T16:33:55.995Z,6.02
2023-01-26T16:36:24.834Z,5.96
2023-01-26T16:38:53.834Z,5.87
2023-01-26T16:41:25.500Z,5.83
2023-01-26T16:43:55.430Z,5.97
2023-01-26T16:46:23.245Z,6.03
2023-01-26T16:48:51.296Z,5.79
2023-01-26T16:51:21.867Z,5.73
2023-01-26T16:53:49.616Z,5.60
2023-01-26T16:56:19.682Z,5.33
2023-01-26T16:58:47.979Z,5.32
2023-01-26T17:01:19.221Z,5.32
2023-01-26T17:03:47.223Z,5.46
2023-01-26T17:06:15.719Z,5.48
2023-01-26T17:08:44.587Z,5.57
2023-01-26T17:11:18.559Z,5.57
2023-01-26T17:13:46.656Z,5.42
2023-01-26T17:16:16.408Z,5.63
2023-01-26T17:18:45.074Z,5.81
2023-01-26T17:21:13.163Z,5.75
2023-01-26T17:23:44.393Z,5.71
2023-01-26T17:26:13.718Z,5.94
2023-01-26T17:28:42.698Z,5.82
2023-01-26T17:31:11.381Z,5.81
2023-01-26T17:33:39.641Z,5.99
2023-01-26T17:36:08.405Z,6.08
2023-01-26T17:38:36.386Z,5.97
2023-01-26T17:41:04.238Z,5.94
2023-01-26T17:43:31.960Z,5.95
2023-01-26T17:46:05.388Z,5.98
2023-01-26T17:48:33.887Z,5.87
2023-01-26T17:51:01.568Z,5.93
2023-01-26T17:53:29.533Z,5.95
2023-01-26T17:55:57.151Z,5.98
2023-01-26T17:58:24.844Z,5.85
2023-01-26T18:00:52.740Z,5.97
2023-01-26T18:03:26.257Z,5.90
2023-01-26T18:05:54.876Z,5.91
2023-01-26T18:08:22.765Z,5.87
2023-01-26T18:10:50.765Z,5.73
2023-01-26T18:13:18.499Z,5.75
2023-01-26T18:15:46.332Z,5.76
2023-01-26T18:18:14.720Z,5.86
2023-01-26T18:20:44.194Z,5.88
2023-01-26T18:23:11.884Z,5.99
2023-01-26T18:25:40.181Z,5.78
2023-01-26T18:28:08.329Z,5.90
2023-01-26T18:30:36.022Z,5.85
2023-01-26T18:33:03.664Z,6.00
2023-01-26T18:35:31.740Z,5.89
2023-01-26T18:38:00.796Z,5.79
2023-01-26T18:40:28.676Z,5.98
2023-01-26T18:42:56.534Z,5.82
2023-01-26T18:45:24.557Z,5.72
2023-01-26T18:47:52.354Z,5.67
2023-01-26T18:50:20.076Z,5.65
2023-01-26T18:52:47.747Z,5.59
2023-01-26T18:55:17.069Z,5.52
2023-01-26T18:57:44.770Z,5.57
2023-01-26T19:00:13.857Z,5.68
2023-01-26T19:02:41.749Z,5.47
2023-01-26T19:05:10.528Z,5.57
2023-01-26T19:07:38.698Z,5.64
2023-01-26T19:10:07.131Z,5.69
2023-01-26T19:12:36.327Z,5.66
2023-01-26T19:15:04.249Z,5.66
2023-01-26T19:17:32.130Z,5.62
2023-01-26T19:19:59.840Z,5.61
2023-01-26T19:22:27.434Z,5.61
2023-01-26T19:24:55.137Z,5.50
2023-01-26T19:27:22.747Z,5.81
2023-01-26T19:29:54.300Z,5.44
2023-01-26T19:32:21.924Z,5.51
2023-01-26T19:34:49.665Z,5.42
2023-01-26T19:37:17.300Z,5.51
2023-01-26T19:39:44.896Z,5.58
2023-01-26T19:42:12.633Z,5.62
2023-01-26T19:44:40.328Z,5.53
2023-01-26T19:47:09.576Z,5.50
2023-01-26T19:49:37.290Z,5.59
2023-01-26T19:52:05.229Z,5.64
2023-01-26T19:54:32.960Z,5.47
2023-01-26T19:57:00.708Z,5.63
2023-01-26T19:59:28.273Z,5.60
2023-01-26T20:01:56.125Z,5.43
2023-01-26T20:04:25.300Z,5.46
2023-01-26T20:06:53.164Z,5.46
2023-01-26T20:09:20.875Z,5.43
2023-01-26T20:11:50.265Z,5.45
2023-01-26T20:14:17.893Z,5.47
2023-01-26T20:16:45.594Z,5.42
2023-01-26T20:19:14.338Z,5.47
2023-01-26T20:21:43.401Z,5.42
2023-01-26T20:24:13.933Z,5.45
2023-01-26T20:26:43.546Z,5.32
2023-01-26T20:29:13.875Z,5.37
2023-01-26T20:31:42.098Z,5.42
2023-01-26T20:34:10.445Z,5.30
2023-01-26T20:36:38.697Z,5.34
2023-01-26T20:39:09.155Z,5.34
2023-01-26T20:41:36.749Z,5.30
2023-01-26T20:44:06.841Z,5.28
2023-01-26T20:46:37.571Z,5.31
2023-01-26T20:49:05.791Z,5.21
2023-01-26T20:51:35.784Z,5.22
2023-01-26T20:54:06.396Z,5.18
2023-01-26T20:56:36.529Z,5.09
2023-01-26T20:59:04.999Z,5.08
2023-01-26T21:01:34.523Z,5.16
2023-01-26T21:04:03.062Z,5.09
2023-01-26T21:06:31.674Z,5.17
2023-01-26T21:09:00.727Z,5.27
2023-01-26T21:11:30.607Z,5.10
2023-01-26T21:14:02.003Z,5.16
2023-01-26T21:16:31.054Z,5.21
2023-01-26T21:18:59.196Z,5.32
2023-01-26T21:21:27.112Z,5.22
2023-01-26T21:23:54.745Z,5.09
2023-01-26T21:26:24.081Z,5.11
2023-01-26T21:28:52.729Z,5.11
2023-01-26T21:31:23.744Z,5.13
2023-01-26T21:33:52.151Z,5.15
2023-01-26T21:36:21.790Z,5.12
2023-01-26T21:38:52.079Z,5.03
2023-01-26T21:41:41.207Z,5.02
2023-01-26T21:44:11.560Z,5.14
2023-01-26T21:46:40.927Z,5.07
2023-01-26T21:49:09.079Z,4.87
2023-01-26T21:51:54.292Z,5.03
2023-01-26T21:54:22.015Z,4.97
2023-01-26T21:56:49.618Z,5.00
2023-01-26T21:59:17.989Z,5.00
2023-01-26T22:01:48.678Z,4.98
2023-01-26T22:04:17.731Z,5.19
2023-01-26T22:06:45.628Z,5.11
2023-01-26T22:09:14.896Z,5.04
2023-01-26T22:11:42.554Z,4.98
2023-01-26T22:14:14.880Z,4.90
2023-01-26T22:16:42.692Z,4.92
2023-01-26T22:19:12.569Z,4.83
2023-01-26T22:21:40.879Z,4.82
2023-01-26T22:24:11.732Z,4.75
2023-01-26T22:26:40.031Z,4.81
2023-01-26T22:29:08.555Z,4.82
2023-01-26T22:31:36.308Z,4.78
2023-01-26T22:34:04.359Z,4.72
2023-01-26T22:36:33.687Z,4.70
2023-01-26T22:39:01.377Z,4.75
2023-01-26T22:41:30.012Z,4.76
2023-01-26T22:43:59.107Z,4.72
2023-01-26T22:46:28.060Z,4.68
2023-01-26T22:48:57.172Z,4.85
2023-01-26T22:51:26.722Z,4.76
2023-01-26T22:53:56.525Z,4.71
2023-01-26T22:56:24.538Z,4.71
2023-01-26T22:58:58.120Z,4.80
2023-01-26T23:01:27.368Z,4.74
2023-01-26T23:03:56.453Z,4.74
2023-01-26T23:06:24.353Z,4.75
2023-01-26T23:08:52.100Z,4.88
2023-01-26T23:11:23.587Z,4.84
2023-01-26T23:13:52.296Z,4.66
2023-01-26T23:16:21.409Z,4.77
2023-01-26T23:18:49.015Z,4.80
2023-01-26T23:21:16.637Z,4.72
2023-01-26T23:23:44.386Z,4.79
2023-01-26T23:26:12.312Z,4.81
2023-01-26T23:28:42.326Z,4.63
2023-01-26T23:31:10.793Z,4.70
2023-01-26T23:33:39.619Z,4.68
2023-01-26T23:36:08.505Z,4.71
2023-01-26T23:38:36.540Z,4.57
2023-01-26T23:41:05.504Z,4.50
2023-01-26T23:43:33.625Z,4.54
2023-01-26T23:46:03.373Z,4.47
2023-01-26T23:48:31.056Z,4.45
2023-01-26T23:50:59.957Z,4.36
2023-01-26T23:53:28.137Z,4.34
2023-01-26T23:55:56.104Z,4.26
2023-01-26T23:58:23.890Z,4.32
